createdAt,value
2018-04-10T06:02:52.219Z,13.30
2018-04-10T06:05:19.343Z,15.52
2018-04-10T06:07:45.696Z,14.55
2018-04-10T06:10:12.859Z,12.60
2018-04-10T06:12:40.001Z,12.37
2018-04-10T06:15:07.123Z,12.40
2018-04-10T06:17:33.517Z,11.63
2018-04-10T06:19:59.895Z,14.90
2018-04-10T06:22:26.323Z,15.20
2018-04-10T06:24:52.697Z,16.65
2018-04-10T06:27:19.884Z,16.60
2018-04-10T06:29:46.312Z,15.70
2018-04-10T06:32:12.704Z,14.27
2018-04-10T06:34:39.824Z,16.67
2018-04-10T06:37:06.219Z,15.98
2018-04-10T06:39:32.647Z,15.45
2018-04-10T06:41:59.003Z,12.85
2018-04-10T06:44:25.407Z,15.75
2018-04-10T06:46:52.503Z,18.12
2018-04-10T06:49:18.920Z,17.42
2018-04-10T06:51:45.291Z,21.27
2018-04-10T06:54:11.734Z,21.30
2018-04-10T06:56:38.113Z,19.02
2018-04-10T06:59:04.534Z,20.53
2018-04-10T07:01:30.924Z,20.45
2018-04-10T07:03:57.307Z,21.75
2018-04-10T07:06:23.717Z,19.50
2018-04-10T07:08:50.832Z,21.08
2018-04-10T07:11:17.232Z,20.60
2018-04-10T07:13:43.607Z,20.98
2018-04-10T07:16:10.058Z,21.02
2018-04-10T07:18:36.441Z,22.35
2018-04-10T07:21:02.814Z,23.80
2018-04-10T07:23:29.223Z,23.55
2018-04-10T07:25:55.621Z,20.92
2018-04-10T07:28:22.035Z,22.27
2018-04-10T07:30:49.210Z,25.00
2018-04-10T07:33:15.668Z,26.42
2018-04-10T07:35:42.050Z,23.00
2018-04-10T07:38:09.175Z,26.48
2018-04-10T07:40:35.562Z,23.75
2018-04-10T07:43:01.924Z,26.70
2018-04-10T07:45:28.335Z,25.40
2018-04-10T07:47:54.735Z,24.60
2018-04-10T07:50:21.115Z,25.15
2018-04-10T07:52:47.508Z,25.93
2018-04-10T07:55:14.618Z,26.05
2018-04-10T07:57:41.015Z,26.73
2018-04-10T08:00:07.423Z,28.95
2018-04-10T08:02:34.568Z,24.58
2018-04-10T08:05:01.691Z,26.33
2018-04-10T08:07:28.104Z,27.33
2018-04-10T08:09:54.491Z,25.92
2018-04-10T08:12:20.883Z,26.50
2018-04-10T08:14:47.351Z,25.12
2018-04-10T08:17:13.716Z,25.73
2018-04-10T08:19:40.096Z,26.52
2018-04-10T08:22:06.465Z,22.60
2018-04-10T08:24:33.624Z,22.73
2018-04-10T08:27:00.723Z,25.10
2018-04-10T08:29:27.102Z,22.37
2018-04-10T08:31:54.223Z,21.50
2018-04-10T08:34:20.599Z,22.73
2018-04-10T08:36:47.702Z,26.30
2018-04-10T08:39:14.095Z,22.77
2018-04-10T08:41:40.535Z,22.20
2018-04-10T08:44:06.900Z,24.33
2018-04-10T08:46:33.293Z,29.33
2018-04-10T08:48:59.695Z,29.80
2018-04-10T08:51:26.831Z,30.10
2018-04-10T08:53:53.225Z,24.17
2018-04-10T08:56:19.613Z,25.37
2018-04-10T08:58:46.000Z,26.13
2018-04-10T09:01:12.381Z,25.00
2018-04-10T09:03:38.765Z,24.30
2018-04-10T09:06:05.163Z,26.87
2018-04-10T09:08:32.289Z,23.93
2018-04-10T09:10:58.676Z,24.63
2018-04-10T09:13:25.045Z,25.67
2018-04-10T09:15:51.427Z,27.40
2018-04-10T09:18:17.806Z,22.33
2018-04-10T09:20:44.193Z,29.03
2018-04-10T09:23:11.455Z,23.43
2018-04-10T09:25:37.858Z,23.93
2018-04-10T09:28:04.967Z,24.93
2018-04-10T09:30:31.343Z,24.73
2018-04-10T09:32:58.496Z,23.33
2018-04-10T09:35:25.640Z,25.10
2018-04-10T09:37:52.031Z,27.03
2018-04-10T09:40:18.409Z,23.53
2018-04-10T09:42:44.798Z,22.83
2018-04-10T09:45:11.187Z,25.90
2018-04-10T09:47:38.297Z,25.30
2018-04-10T09:50:04.694Z,22.93
2018-04-10T09:52:31.091Z,24.00
2018-04-10T09:54:57.489Z,28.47
2018-04-10T09:57:23.851Z,25.20
2018-04-10T09:59:50.230Z,32.90
2018-04-10T10:02:16.608Z,24.00
2018-04-10T10:04:43.031Z,24.20
2018-04-10T10:07:09.428Z,25.67
2018-04-10T10:09:35.842Z,32.05
2018-04-10T10:12:02.980Z,26.70
2018-04-10T10:14:29.365Z,27.55
2018-04-10T10:16:55.734Z,28.02
2018-04-10T10:19:22.159Z,27.70
2018-04-10T10:21:48.524Z,28.10
2018-04-10T10:24:15.769Z,28.12
2018-04-10T10:26:42.132Z,28.50
2018-04-10T10:29:08.547Z,27.65
2018-04-10T10:31:35.699Z,29.47
2018-04-10T10:34:02.842Z,29.27
2018-04-10T10:36:29.249Z,27.42
2018-04-10T10:38:55.627Z,27.67
2018-04-10T10:41:22.760Z,28.60
2018-04-10T10:43:49.150Z,28.00
2018-04-10T10:46:15.558Z,29.12
2018-04-10T10:48:41.955Z,28.92
2018-04-10T10:51:08.343Z,28.77
2018-04-10T10:53:34.785Z,29.02
2018-04-10T10:56:01.171Z,29.20
2018-04-10T10:58:28.303Z,29.97
2018-04-10T11:00:54.701Z,29.95
2018-04-10T11:03:21.076Z,27.77
2018-04-10T11:05:47.552Z,30.90
2018-04-10T11:08:13.953Z,29.20
2018-04-10T11:10:41.098Z,29.10
2018-04-10T11:13:07.476Z,32.00
2018-04-10T11:15:33.896Z,29.83
2018-04-10T11:18:00.320Z,29.08
2018-04-10T11:20:27.480Z,29.05
2018-04-10T11:22:53.884Z,29.85
2018-04-10T11:25:20.259Z,27.25
2018-04-10T11:27:46.644Z,29.13
2018-04-10T11:30:13.051Z,28.58
2018-04-10T11:32:39.586Z,28.55
2018-04-10T11:35:05.966Z,29.20
2018-04-10T11:37:32.400Z,27.87
2018-04-10T11:39:58.783Z,28.15
2018-04-10T11:42:25.176Z,29.53
2018-04-10T11:44:52.348Z,27.50
2018-04-10T11:47:18.732Z,28.40
2018-04-10T11:49:45.816Z,28.90
2018-04-10T11:52:12.921Z,27.48
2018-04-10T11:54:39.337Z,28.45
2018-04-10T11:57:05.719Z,30.50
2018-04-10T11:59:32.109Z,27.67
2018-04-10T12:01:58.546Z,28.10
2018-04-10T12:04:24.923Z,28.67
2018-04-10T12:06:51.306Z,29.87
2018-04-10T12:09:17.722Z,28.55
2018-04-10T12:11:44.822Z,29.27
2018-04-10T12:14:11.216Z,29.30
2018-04-10T12:16:37.596Z,30.37
2018-04-10T12:19:03.995Z,28.92
2018-04-10T12:21:30.364Z,28.60
2018-04-10T12:23:56.798Z,29.30
2018-04-10T12:26:23.192Z,28.27
2018-04-10T12:28:49.579Z,28.27
2018-04-10T12:31:15.956Z,28.87
2018-04-10T12:33:42.359Z,28.55
2018-04-10T12:36:09.479Z,29.65
2018-04-10T12:38:35.871Z,29.90
2018-04-10T12:41:02.251Z,28.05
2018-04-10T12:43:28.651Z,28.98
2018-04-10T12:45:55.054Z,28.98
2018-04-10T12:48:22.240Z,28.90
2018-04-10T12:50:48.747Z,27.48
2018-04-10T12:53:15.210Z,28.10
2018-04-10T12:55:41.612Z,26.45
2018-04-10T12:58:08.037Z,27.37
2018-04-10T13:00:35.151Z,26.75
2018-04-10T13:03:01.584Z,27.23
2018-04-10T13:05:28.152Z,27.00
2018-04-10T13:07:55.287Z,29.10
2018-04-10T13:10:21.720Z,27.60
2018-04-10T13:12:48.136Z,26.30
2018-04-10T13:15:14.553Z,27.08
2018-04-10T13:17:40.933Z,26.75
2018-04-10T13:20:07.354Z,25.60
2018-04-10T13:22:33.735Z,26.85
2018-04-10T13:25:00.112Z,29.15
2018-04-10T13:27:27.252Z,27.62
2018-04-10T13:29:53.631Z,28.33
2018-04-10T13:32:20.786Z,28.67
2018-04-10T13:34:47.198Z,27.67
2018-04-10T13:37:13.560Z,27.60
2018-04-10T13:39:40.683Z,27.73
2018-04-10T13:42:07.089Z,27.45
2018-04-10T13:44:33.508Z,27.62
2018-04-10T13:46:59.880Z,25.12
2018-04-10T13:49:26.279Z,25.20
2018-04-10T13:51:52.659Z,26.92
2018-04-10T13:54:19.072Z,25.67
2018-04-10T13:56:45.448Z,24.25
2018-04-10T13:59:12.555Z,22.30
2018-04-10T14:01:38.975Z,19.40
2018-04-10T14:04:05.424Z,19.42
2018-04-10T14:06:31.811Z,18.77
2018-04-10T14:08:58.207Z,19.70
2018-04-10T14:11:24.616Z,18.20
2018-04-10T14:13:50.994Z,18.05
2018-04-10T14:16:18.141Z,17.17
2018-04-10T14:18:45.255Z,17.05
2018-04-10T14:21:11.664Z,19.98
2018-04-10T14:23:38.030Z,17.65
2018-04-10T14:26:04.440Z,17.17
2018-04-10T14:28:30.819Z,16.65
2018-04-10T14:30:57.242Z,17.40
2018-04-10T14:33:23.640Z,14.00
2018-04-10T14:35:50.060Z,13.45
2018-04-10T14:38:16.463Z,14.73
2018-04-10T14:40:43.622Z,15.07
2018-04-10T14:43:10.743Z,16.40
2018-04-10T14:45:37.118Z,15.73
2018-04-10T14:48:03.557Z,13.93
2018-04-10T14:50:29.955Z,15.05
2018-04-10T14:52:56.420Z,13.98
2018-04-10T14:55:23.563Z,13.10
2018-04-10T14:57:50.719Z,12.95
2018-04-10T15:00:17.838Z,12.48
2018-04-10T15:02:44.261Z,15.10
2018-04-10T15:05:13.537Z,10.65
2018-04-10T15:07:41.285Z,9.57
2018-04-10T15:10:07.727Z,11.37
2018-04-10T15:12:36.547Z,10.05
2018-04-10T15:15:05.826Z,10.20
2018-04-10T15:17:34.901Z,10.07
2018-04-10T15:20:04.035Z,12.25
2018-04-10T15:22:33.276Z,11.68
2018-04-10T15:25:03.508Z,9.80
2018-04-10T15:27:32.723Z,7.90
2018-04-10T15:29:59.852Z,9.25
2018-04-10T15:32:26.985Z,7.65
2018-04-10T15:34:53.379Z,6.78
2018-04-10T15:37:19.755Z,5.90
2018-04-10T15:39:46.158Z,7.60
2018-04-10T15:42:12.588Z,7.07
2018-04-10T15:44:39.121Z,6.00
2018-04-10T15:47:05.562Z,5.80
2018-04-10T15:49:32.651Z,6.00
2018-04-10T15:51:59.056Z,7.40
2018-04-10T15:54:25.523Z,7.30
2018-04-10T15:56:51.916Z,5.90
2018-04-10T15:59:18.295Z,5.85
2018-04-10T16:01:44.717Z,6.90
2018-04-10T16:04:11.084Z,6.60
2018-04-10T16:06:38.219Z,6.50
2018-04-10T16:09:05.347Z,7.40
2018-04-10T16:11:31.729Z,6.47
2018-04-10T16:13:58.168Z,6.45
2018-04-10T16:16:24.594Z,7.00
2018-04-10T16:18:50.983Z,8.90
2018-04-10T16:21:17.357Z,6.10
2018-04-10T16:23:44.502Z,6.95
2018-04-10T16:26:11.603Z,6.25
2018-04-10T16:28:41.713Z,7.03
2018-04-10T16:31:08.421Z,6.28
2018-04-10T16:33:34.834Z,10.00
2018-04-10T16:36:01.199Z,6.70
2018-04-10T16:38:27.563Z,6.10
2018-04-10T16:40:53.939Z,6.00
2018-04-10T16:43:21.068Z,7.43
2018-04-10T16:45:47.483Z,9.80
2018-04-10T16:48:13.924Z,8.80
2018-04-10T16:50:40.319Z,5.97
2018-04-10T16:53:06.714Z,7.68
2018-04-10T16:55:33.081Z,7.97
2018-04-10T16:57:59.462Z,10.10
2018-04-10T17:00:25.850Z,9.65
2018-04-10T17:02:52.247Z,7.18
2018-04-10T17:05:18.636Z,9.80
2018-04-10T17:07:45.033Z,10.30
2018-04-10T17:10:12.169Z,7.22
2018-04-10T17:12:38.559Z,10.63
2018-04-10T17:15:05.008Z,8.15
2018-04-10T17:17:31.395Z,11.43
2018-04-10T17:19:58.575Z,8.15
2018-04-10T17:22:24.944Z,9.55
2018-04-10T17:24:51.340Z,8.57
2018-04-10T17:27:17.711Z,8.43
2018-04-10T17:29:44.169Z,8.82
2018-04-10T17:32:10.578Z,9.68
2018-04-10T17:34:37.004Z,9.32
2018-04-10T17:37:03.429Z,9.93
2018-04-10T17:39:29.798Z,10.05
2018-04-10T17:41:56.215Z,8.80
2018-04-10T17:44:22.593Z,12.18
2018-04-10T17:46:49.019Z,8.40
2018-04-10T17:49:16.164Z,9.50
2018-04-10T17:51:43.324Z,7.57
2018-04-10T17:54:10.465Z,8.20
2018-04-10T17:56:37.620Z,8.63
2018-04-10T17:59:04.747Z,9.73
2018-04-10T18:01:31.145Z,10.40
2018-04-10T18:03:57.536Z,8.40
2018-04-10T18:06:26.543Z,8.63
2018-04-10T18:08:53.743Z,11.63
2018-04-10T18:11:20.158Z,9.80
2018-04-10T18:13:53.648Z,9.37
2018-04-10T18:16:20.039Z,8.30
2018-04-10T18:18:46.463Z,9.75
2018-04-10T18:21:13.597Z,9.85
2018-04-10T18:23:40.032Z,9.85
2018-04-10T18:26:06.478Z,10.00
2018-04-10T18:28:32.865Z,9.98
2018-04-10T18:30:59.245Z,10.57
2018-04-10T18:33:25.656Z,10.90
2018-04-10T18:35:52.039Z,11.63
2018-04-10T18:38:21.167Z,10.70
2018-04-10T18:40:47.662Z,12.20
2018-04-10T18:43:14.060Z,14.52
2018-04-10T18:45:40.423Z,12.40
2018-04-10T18:48:07.571Z,10.50
2018-04-10T18:50:33.934Z,12.15
2018-04-10T18:53:01.099Z,10.93
2018-04-10T18:55:27.479Z,11.57
2018-04-10T18:57:53.894Z,12.90
2018-04-10T19:00:20.330Z,10.35
2018-04-10T19:02:46.720Z,10.15
2018-04-10T19:05:13.875Z,10.02
2018-04-10T19:07:41.066Z,11.20
2018-04-10T19:10:07.506Z,12.13
2018-04-10T19:12:33.929Z,11.10
2018-04-10T19:15:00.359Z,10.07
2018-04-10T19:17:26.778Z,10.15
2018-04-10T19:19:53.231Z,11.80
2018-04-10T19:22:19.733Z,9.70
2018-04-10T19:24:46.904Z,11.93
2018-04-10T19:27:13.339Z,9.45
2018-04-10T19:29:39.725Z,13.93
2018-04-10T19:32:06.144Z,12.25
2018-04-10T19:34:32.582Z,9.68
2018-04-10T19:36:59.010Z,9.80
2018-04-10T19:39:25.448Z,9.70
2018-04-10T19:41:51.835Z,12.82
2018-04-10T19:44:18.253Z,9.43
2018-04-10T19:46:45.375Z,11.20
2018-04-10T19:49:11.799Z,13.07
2018-04-10T19:51:38.181Z,10.70
2018-04-10T19:54:05.365Z,10.10
2018-04-10T19:56:31.751Z,10.15
2018-04-10T19:58:58.896Z,9.70
2018-04-10T20:01:25.297Z,9.02
2018-04-10T20:03:53.873Z,6.93
2018-04-10T20:06:20.275Z,6.37
2018-04-10T20:08:47.425Z,4.80
2018-04-10T20:11:14.570Z,5.10
2018-04-10T20:13:41.765Z,4.80
2018-04-10T20:16:08.167Z,4.80
2018-04-10T20:18:34.691Z,4.95
2018-04-10T20:21:02.612Z,7.47
2018-04-10T20:23:29.900Z,6.43
2018-04-10T20:25:56.344Z,5.22
2018-04-10T20:28:22.739Z,5.87
2018-04-10T20:30:54.879Z,7.20
2018-04-10T20:33:22.360Z,8.63
2018-04-10T20:35:49.530Z,9.40
2018-04-10T20:38:15.919Z,6.25
2018-04-10T20:40:42.311Z,8.82
2018-04-10T20:43:08.754Z,12.10
2018-04-10T20:45:35.880Z,10.70
2018-04-10T20:48:02.447Z,10.70
2018-04-10T20:53:38.892Z,10.57
2018-04-10T20:56:05.340Z,11.43
2018-04-10T20:58:31.725Z,12.43
2018-04-10T21:00:58.860Z,13.80
2018-04-10T21:03:25.984Z,15.02
2018-04-10T21:05:52.435Z,14.02
2018-04-10T21:08:18.846Z,12.55
2018-04-10T21:10:45.233Z,12.77
2018-04-10T21:13:12.369Z,13.00
2018-04-10T21:15:39.502Z,13.95
2018-04-10T21:18:05.909Z,12.32
2018-04-10T21:20:32.280Z,12.10
2018-04-10T21:22:58.682Z,11.55
2018-04-10T21:25:25.056Z,11.30
2018-04-10T21:27:52.191Z,10.68
2018-04-10T21:30:18.563Z,10.98
2018-04-10T21:32:44.962Z,9.82
2018-04-10T21:35:11.392Z,9.32
2018-04-10T21:37:37.804Z,8.85
2018-04-10T21:40:04.231Z,10.43
2018-04-10T21:42:36.628Z,8.23
2018-04-10T21:45:03.040Z,6.75
2018-04-10T21:47:29.455Z,7.45
2018-04-10T21:49:55.823Z,8.65
2018-04-10T21:52:22.244Z,7.23
2018-04-10T21:54:48.623Z,6.93
2018-04-10T21:57:15.747Z,7.30
2018-04-10T21:59:42.103Z,7.85
2018-04-10T22:02:09.238Z,8.77
2018-04-10T22:04:36.359Z,7.70
2018-04-10T22:07:02.722Z,8.95
2018-04-10T22:09:29.149Z,7.40
2018-04-10T22:11:55.503Z,9.30
2018-04-10T22:14:22.001Z,10.35
2018-04-10T22:16:48.378Z,8.85
2018-04-10T22:19:15.472Z,9.10
2018-04-10T22:21:41.869Z,9.20
2018-04-10T22:24:08.992Z,9.47
2018-04-10T22:26:35.371Z,9.63
2018-04-10T22:29:01.739Z,9.43
2018-04-10T22:31:28.145Z,9.20
2018-04-10T22:33:54.489Z,9.93
2018-04-10T22:36:20.909Z,8.77
2018-04-10T22:38:47.275Z,9.30
2018-04-10T22:41:13.674Z,9.90
2018-04-10T22:43:40.065Z,9.75
2018-04-10T22:46:07.233Z,10.03
2018-04-10T22:48:33.650Z,9.65
2018-04-10T22:51:00.784Z,10.38
2018-04-10T22:53:27.931Z,9.73
2018-04-10T22:55:54.349Z,9.97
2018-04-10T22:58:20.756Z,13.30
2018-04-10T23:00:49.119Z,10.07
2018-04-10T23:03:15.502Z,10.18
2018-04-10T23:05:41.898Z,10.35
2018-04-10T23:08:08.260Z,11.55
2018-04-10T23:10:34.673Z,12.35
2018-04-10T23:13:01.044Z,12.43
2018-04-10T23:15:32.247Z,13.68
2018-04-10T23:17:58.628Z,14.15
2018-04-10T23:20:25.023Z,14.05
2018-04-10T23:22:51.408Z,14.35
2018-04-10T23:25:17.784Z,15.38
2018-04-10T23:27:44.960Z,15.20
2018-04-10T23:30:12.083Z,15.95
2018-04-10T23:32:39.219Z,16.45
2018-04-10T23:35:05.594Z,16.83
2018-04-10T23:37:34.706Z,16.73
2018-04-10T23:40:01.302Z,18.08
2018-04-10T23:42:28.451Z,19.45
2018-04-10T23:44:55.636Z,18.98
2018-04-10T23:47:22.016Z,19.40
2018-04-10T23:49:48.392Z,19.65
2018-04-10T23:52:14.779Z,19.42
2018-04-10T23:54:41.150Z,19.60
2018-04-10T23:57:08.290Z,20.00
2018-04-10T23:59:35.393Z,20.02
